Terminal Aerodrome Forecast
Issued by NWS

Home | Current Version | Previous Version | Text Only | Print | Product List | Glossary On
Versions: 1 2 3 4 5 6 7 8 9 10 11 12
227
FTUS45 KTFX 101730
TAFGTF
TAF
KGTF 101730Z 1018/1118 34005KT P6SM BKN200
     FM102200 23015G25KT P6SM BKN100
     FM111500 23010KT P6SM SCT100=

USA.gov is the U.S. government's official web portal to all federal, state and local government web resources and services.